sensor_id;sensor_type;location;lat;lon;timestamp;P1;durP1;ratioP1;P2;durP2;ratioP2
22622;SDS011;11478;51.094;7.030;2023-08-24T00:01:50;10.20;;;4.10;;
22622;SDS011;11478;51.094;7.030;2023-08-24T00:04:16;7.13;;;4.50;;
22622;SDS011;11478;51.094;7.030;2023-08-24T00:06:42;10.48;;;4.47;;
22622;SDS011;11478;51.094;7.030;2023-08-24T00:09:08;8.15;;;4.28;;
22622;SDS011;11478;51.094;7.030;2023-08-24T00:11:40;10.75;;;4.47;;
22622;SDS011;11478;51.094;7.030;2023-08-24T00:14:06;9.15;;;4.50;;
22622;SDS011;11478;51.094;7.030;2023-08-24T00:16:41;11.77;;;4.88;;
22622;SDS011;11478;51.094;7.030;2023-08-24T00:21:36;9.75;;;4.28;;
22622;SDS011;11478;51.094;7.030;2023-08-24T00:24:02;10.63;;;4.00;;
22622;SDS011;11478;51.094;7.030;2023-08-24T00:26:31;10.70;;;4.40;;
22622;SDS011;11478;51.094;7.030;2023-08-24T00:28:58;11.73;;;4.43;;
22622;SDS011;11478;51.094;7.030;2023-08-24T00:31:24;6.72;;;4.28;;
22622;SDS011;11478;51.094;7.030;2023-08-24T00:33:51;5.82;;;4.07;;
22622;SDS011;11478;51.094;7.030;2023-08-24T00:36:16;6.57;;;4.07;;
22622;SDS011;11478;51.094;7.030;2023-08-24T00:38:47;9.85;;;4.10;;
22622;SDS011;11478;51.094;7.030;2023-08-24T00:41:16;9.48;;;4.80;;
22622;SDS011;11478;51.094;7.030;2023-08-24T00:43:44;9.30;;;4.07;;
22622;SDS011;11478;51.094;7.030;2023-08-24T00:46:09;9.93;;;4.43;;
22622;SDS011;11478;51.094;7.030;2023-08-24T00:48:36;11.55;;;4.70;;
22622;SDS011;11478;51.094;7.030;2023-08-24T00:51:02;10.13;;;4.57;;
22622;SDS011;11478;51.094;7.030;2023-08-24T00:53:32;13.75;;;4.50;;
22622;SDS011;11478;51.094;7.030;2023-08-24T00:55:58;8.40;;;4.55;;
22622;SDS011;11478;51.094;7.030;2023-08-24T00:58:38;6.95;;;4.28;;
22622;SDS011;11478;51.094;7.030;2023-08-24T01:01:05;9.95;;;4.15;;
22622;SDS011;11478;51.094;7.030;2023-08-24T01:03:31;11.05;;;4.53;;
22622;SDS011;11478;51.094;7.030;2023-08-24T01:06:00;7.57;;;3.63;;
22622;SDS011;11478;51.094;7.030;2023-08-24T01:08:26;7.03;;;4.65;;
22622;SDS011;11478;51.094;7.030;2023-08-24T01:16:25;9.93;;;4.18;;
22622;SDS011;11478;51.094;7.030;2023-08-24T01:18:56;8.65;;;4.80;;
22622;SDS011;11478;51.094;7.030;2023-08-24T01:21:38;7.68;;;4.43;;
22622;SDS011;11478;51.094;7.030;2023-08-24T01:26:39;16.23;;;5.28;;
22622;SDS011;11478;51.094;7.030;2023-08-24T01:29:07;10.00;;;4.47;;
22622;SDS011;11478;51.094;7.030;2023-08-24T01:31:34;12.75;;;4.80;;
22622;SDS011;11478;51.094;7.030;2023-08-24T01:34:00;10.52;;;4.93;;
22622;SDS011;11478;51.094;7.030;2023-08-24T01:36:26;9.32;;;4.53;;
22622;SDS011;11478;51.094;7.030;2023-08-24T01:39:05;7.82;;;4.60;;
22622;SDS011;11478;51.094;7.030;2023-08-24T01:41:39;10.88;;;4.68;;
22622;SDS011;11478;51.094;7.030;2023-08-24T01:44:12;10.88;;;4.97;;
22622;SDS011;11478;51.094;7.030;2023-08-24T01:46:40;7.45;;;4.22;;
22622;SDS011;11478;51.094;7.030;2023-08-24T01:49:18;9.70;;;4.85;;
22622;SDS011;11478;51.094;7.030;2023-08-24T01:51:44;7.45;;;4.43;;
22622;SDS011;11478;51.094;7.030;2023-08-24T01:54:11;13.32;;;4.10;;
22622;SDS011;11478;51.094;7.030;2023-08-24T01:56:38;7.47;;;4.38;;
22622;SDS011;11478;51.094;7.030;2023-08-24T01:59:04;9.63;;;4.53;;
22622;SDS011;11478;51.094;7.030;2023-08-24T02:01:37;9.60;;;5.05;;
22622;SDS011;11478;51.094;7.030;2023-08-24T02:04:03;8.15;;;4.47;;
22622;SDS011;11478;51.094;7.030;2023-08-24T02:06:29;6.75;;;3.92;;
22622;SDS011;11478;51.094;7.030;2023-08-24T02:08:57;14.02;;;4.60;;
22622;SDS011;11478;51.094;7.030;2023-08-24T02:11:23;10.20;;;4.32;;
22622;SDS011;11478;51.094;7.030;2023-08-24T02:13:52;8.10;;;4.28;;
22622;SDS011;11478;51.094;7.030;2023-08-24T02:16:20;6.15;;;4.50;;
22622;SDS011;11478;51.094;7.030;2023-08-24T02:18:47;7.50;;;3.90;;
22622;SDS011;11478;51.094;7.030;2023-08-24T02:21:12;12.00;;;4.47;;
22622;SDS011;11478;51.094;7.030;2023-08-24T02:23:40;10.40;;;4.40;;
22622;SDS011;11478;51.094;7.030;2023-08-24T02:26:07;6.10;;;4.13;;
22622;SDS011;11478;51.094;7.030;2023-08-24T02:28:42;12.13;;;4.60;;
22622;SDS011;11478;51.094;7.030;2023-08-24T02:31:11;7.05;;;4.40;;
22622;SDS011;11478;51.094;7.030;2023-08-24T02:33:41;9.57;;;4.60;;
22622;SDS011;11478;51.094;7.030;2023-08-24T02:36:07;8.38;;;4.40;;
22622;SDS011;11478;51.094;7.030;2023-08-24T02:38:34;8.15;;;4.13;;
22622;SDS011;11478;51.094;7.030;2023-08-24T02:41:03;9.85;;;4.65;;
22622;SDS011;11478;51.094;7.030;2023-08-24T02:43:35;47.05;;;17.15;;
22622;SDS011;11478;51.094;7.030;2023-08-24T02:46:04;11.95;;;5.45;;
22622;SDS011;11478;51.094;7.030;2023-08-24T02:48:32;8.65;;;4.50;;
22622;SDS011;11478;51.094;7.030;2023-08-24T02:50:58;7.95;;;4.50;;
22622;SDS011;11478;51.094;7.030;2023-08-24T02:53:28;9.52;;;4.35;;
22622;SDS011;11478;51.094;7.030;2023-08-24T02:55:57;12.30;;;4.55;;
22622;SDS011;11478;51.094;7.030;2023-08-24T02:58:25;9.40;;;4.30;;
22622;SDS011;11478;51.094;7.030;2023-08-24T03:00:52;7.13;;;4.05;;
22622;SDS011;11478;51.094;7.030;2023-08-24T03:03:23;6.68;;;4.43;;
22622;SDS011;11478;51.094;7.030;2023-08-24T03:05:54;11.25;;;5.28;;
22622;SDS011;11478;51.094;7.030;2023-08-24T03:08:30;7.78;;;4.15;;
22622;SDS011;11478;51.094;7.030;2023-08-24T03:10:57;7.18;;;4.63;;
22622;SDS011;11478;51.094;7.030;2023-08-24T03:13:25;8.43;;;4.68;;
22622;SDS011;11478;51.094;7.030;2023-08-24T03:15:52;7.78;;;4.47;;
22622;SDS011;11478;51.094;7.030;2023-08-24T03:18:20;9.10;;;4.18;;
22622;SDS011;11478;51.094;7.030;2023-08-24T03:20:46;9.70;;;4.30;;
22622;SDS011;11478;51.094;7.030;2023-08-24T03:23:26;8.25;;;4.10;;
22622;SDS011;11478;51.094;7.030;2023-08-24T03:25:52;8.30;;;4.15;;
22622;SDS011;11478;51.094;7.030;2023-08-24T03:28:20;6.38;;;3.90;;
22622;SDS011;11478;51.094;7.030;2023-08-24T03:30:47;6.78;;;4.00;;
22622;SDS011;11478;51.094;7.030;2023-08-24T03:33:17;7.82;;;4.40;;
22622;SDS011;11478;51.094;7.030;2023-08-24T03:35:44;11.63;;;4.55;;
22622;SDS011;11478;51.094;7.030;2023-08-24T03:38:11;9.23;;;4.10;;
22622;SDS011;11478;51.094;7.030;2023-08-24T03:40:37;8.32;;;4.18;;
22622;SDS011;11478;51.094;7.030;2023-08-24T03:43:05;8.38;;;4.30;;
22622;SDS011;11478;51.094;7.030;2023-08-24T03:45:34;6.55;;;3.95;;
22622;SDS011;11478;51.094;7.030;2023-08-24T03:48:00;8.80;;;4.38;;
22622;SDS011;11478;51.094;7.030;2023-08-24T03:50:26;10.75;;;4.50;;
22622;SDS011;11478;51.094;7.030;2023-08-24T03:52:56;6.45;;;4.00;;
22622;SDS011;11478;51.094;7.030;2023-08-24T03:55:22;8.55;;;4.50;;
22622;SDS011;11478;51.094;7.030;2023-08-24T03:57:49;5.95;;;3.92;;
22622;SDS011;11478;51.094;7.030;2023-08-24T04:00:16;6.07;;;4.10;;
22622;SDS011;11478;51.094;7.030;2023-08-24T04:02:42;10.90;;;4.45;;
22622;SDS011;11478;51.094;7.030;2023-08-24T04:05:09;10.95;;;4.13;;
22622;SDS011;11478;51.094;7.030;2023-08-24T04:07:37;9.07;;;4.22;;
22622;SDS011;11478;51.094;7.030;2023-08-24T04:10:06;13.63;;;4.50;;
22622;SDS011;11478;51.094;7.030;2023-08-24T04:12:34;8.65;;;4.53;;
22622;SDS011;11478;51.094;7.030;2023-08-24T04:15:02;9.25;;;4.57;;
22622;SDS011;11478;51.094;7.030;2023-08-24T04:17:38;5.88;;;4.15;;
22622;SDS011;11478;51.094;7.030;2023-08-24T04:20:05;10.90;;;5.00;;
22622;SDS011;11478;51.094;7.030;2023-08-24T04:22:32;6.63;;;4.63;;
22622;SDS011;11478;51.094;7.030;2023-08-24T04:25:03;8.20;;;4.32;;
22622;SDS011;11478;51.094;7.030;2023-08-24T04:27:32;7.40;;;4.57;;
22622;SDS011;11478;51.094;7.030;2023-08-24T04:29:58;7.93;;;4.40;;
22622;SDS011;11478;51.094;7.030;2023-08-24T04:32:44;4.72;;;4.15;;
22622;SDS011;11478;51.094;7.030;2023-08-24T04:35:12;7.93;;;4.57;;
22622;SDS011;11478;51.094;7.030;2023-08-24T04:37:38;6.13;;;4.00;;
22622;SDS011;11478;51.094;7.030;2023-08-24T04:40:06;10.55;;;4.00;;
22622;SDS011;11478;51.094;7.030;2023-08-24T04:42:33;8.65;;;4.28;;
22622;SDS011;11478;51.094;7.030;2023-08-24T04:47:31;7.97;;;4.10;;
22622;SDS011;11478;51.094;7.030;2023-08-24T04:49:57;14.15;;;4.65;;
22622;SDS011;11478;51.094;7.030;2023-08-24T04:52:23;8.98;;;4.85;;
22622;SDS011;11478;51.094;7.030;2023-08-24T04:54:49;10.63;;;4.93;;
22622;SDS011;11478;51.094;7.030;2023-08-24T04:57:16;9.77;;;4.72;;
22622;SDS011;11478;51.094;7.030;2023-08-24T04:59:43;7.82;;;4.50;;
22622;SDS011;11478;51.094;7.030;2023-08-24T05:02:09;8.63;;;5.05;;
22622;SDS011;11478;51.094;7.030;2023-08-24T05:04:35;9.50;;;4.53;;
22622;SDS011;11478;51.094;7.030;2023-08-24T05:07:01;7.18;;;4.40;;
22622;SDS011;11478;51.094;7.030;2023-08-24T05:09:27;13.55;;;5.03;;
22622;SDS011;11478;51.094;7.030;2023-08-24T05:11:52;9.32;;;5.32;;
22622;SDS011;11478;51.094;7.030;2023-08-24T05:14:28;10.43;;;4.78;;
22622;SDS011;11478;51.094;7.030;2023-08-24T05:16:54;8.43;;;5.05;;
22622;SDS011;11478;51.094;7.030;2023-08-24T05:19:19;8.85;;;4.68;;
22622;SDS011;11478;51.094;7.030;2023-08-24T05:21:45;8.30;;;5.65;;
22622;SDS011;11478;51.094;7.030;2023-08-24T05:24:12;7.30;;;5.05;;
22622;SDS011;11478;51.094;7.030;2023-08-24T05:26:42;12.45;;;5.60;;
22622;SDS011;11478;51.094;7.030;2023-08-24T05:29:07;9.30;;;5.50;;
22622;SDS011;11478;51.094;7.030;2023-08-24T05:31:36;9.35;;;5.10;;
22622;SDS011;11478;51.094;7.030;2023-08-24T05:34:02;9.23;;;5.35;;
22622;SDS011;11478;51.094;7.030;2023-08-24T05:36:29;16.27;;;6.25;;
22622;SDS011;11478;51.094;7.030;2023-08-24T05:38:55;12.70;;;5.60;;
22622;SDS011;11478;51.094;7.030;2023-08-24T05:41:25;14.90;;;5.32;;
22622;SDS011;11478;51.094;7.030;2023-08-24T05:43:50;12.13;;;5.93;;
22622;SDS011;11478;51.094;7.030;2023-08-24T05:46:18;9.95;;;5.70;;
22622;SDS011;11478;51.094;7.030;2023-08-24T05:48:44;10.35;;;5.68;;
22622;SDS011;11478;51.094;7.030;2023-08-24T05:51:11;11.30;;;5.85;;
22622;SDS011;11478;51.094;7.030;2023-08-24T05:53:37;9.82;;;5.82;;
22622;SDS011;11478;51.094;7.030;2023-08-24T05:56:24;7.40;;;5.97;;
22622;SDS011;11478;51.094;7.030;2023-08-24T05:58:50;9.20;;;5.70;;
22622;SDS011;11478;51.094;7.030;2023-08-24T06:01:17;10.27;;;5.80;;
22622;SDS011;11478;51.094;7.030;2023-08-24T06:03:43;12.18;;;6.20;;
22622;SDS011;11478;51.094;7.030;2023-08-24T06:06:10;9.60;;;6.28;;
22622;SDS011;11478;51.094;7.030;2023-08-24T06:08:36;10.75;;;6.53;;
22622;SDS011;11478;51.094;7.030;2023-08-24T06:11:02;10.85;;;6.20;;
22622;SDS011;11478;51.094;7.030;2023-08-24T06:13:30;11.38;;;7.03;;
22622;SDS011;11478;51.094;7.030;2023-08-24T06:15:56;14.73;;;7.32;;
22622;SDS011;11478;51.094;7.030;2023-08-24T06:18:22;11.85;;;7.03;;
22622;SDS011;11478;51.094;7.030;2023-08-24T06:20:51;10.63;;;6.55;;
22622;SDS011;11478;51.094;7.030;2023-08-24T06:23:17;10.55;;;7.07;;
22622;SDS011;11478;51.094;7.030;2023-08-24T06:25:43;9.07;;;6.97;;
22622;SDS011;11478;51.094;7.030;2023-08-24T06:28:20;9.82;;;7.03;;
22622;SDS011;11478;51.094;7.030;2023-08-24T06:30:45;8.63;;;6.25;;
22622;SDS011;11478;51.094;7.030;2023-08-24T06:33:26;12.35;;;6.97;;
22622;SDS011;11478;51.094;7.030;2023-08-24T06:35:55;10.52;;;6.75;;
22622;SDS011;11478;51.094;7.030;2023-08-24T06:38:22;10.35;;;6.75;;
22622;SDS011;11478;51.094;7.030;2023-08-24T06:40:48;10.85;;;6.97;;
22622;SDS011;11478;51.094;7.030;2023-08-24T06:43:23;11.20;;;6.93;;
22622;SDS011;11478;51.094;7.030;2023-08-24T06:45:50;10.00;;;7.18;;
22622;SDS011;11478;51.094;7.030;2023-08-24T06:48:20;11.77;;;6.95;;
22622;SDS011;11478;51.094;7.030;2023-08-24T06:50:46;11.07;;;7.40;;
22622;SDS011;11478;51.094;7.030;2023-08-24T06:53:14;10.15;;;6.88;;
22622;SDS011;11478;51.094;7.030;2023-08-24T06:55:40;8.10;;;6.70;;
22622;SDS011;11478;51.094;7.030;2023-08-24T06:58:07;9.63;;;6.20;;
22622;SDS011;11478;51.094;7.030;2023-08-24T07:00:33;10.07;;;6.82;;
22622;SDS011;11478;51.094;7.030;2023-08-24T07:03:00;13.50;;;6.38;;
22622;SDS011;11478;51.094;7.030;2023-08-24T07:05:26;8.23;;;6.13;;
22622;SDS011;11478;51.094;7.030;2023-08-24T07:07:56;11.40;;;5.93;;
22622;SDS011;11478;51.094;7.030;2023-08-24T07:10:22;7.20;;;5.78;;
22622;SDS011;11478;51.094;7.030;2023-08-24T07:12:49;10.65;;;6.03;;
22622;SDS011;11478;51.094;7.030;2023-08-24T07:15:15;8.88;;;5.53;;
22622;SDS011;11478;51.094;7.030;2023-08-24T07:17:45;6.40;;;4.90;;
22622;SDS011;11478;51.094;7.030;2023-08-24T07:20:17;8.07;;;5.10;;
22622;SDS011;11478;51.094;7.030;2023-08-24T07:22:43;9.02;;;4.93;;
22622;SDS011;11478;51.094;7.030;2023-08-24T07:25:13;6.00;;;4.82;;
22622;SDS011;11478;51.094;7.030;2023-08-24T07:27:40;7.55;;;5.03;;
22622;SDS011;11478;51.094;7.030;2023-08-24T07:30:12;8.05;;;4.60;;
22622;SDS011;11478;51.094;7.030;2023-08-24T07:32:38;8.30;;;4.10;;
22622;SDS011;11478;51.094;7.030;2023-08-24T07:35:06;6.22;;;3.40;;
22622;SDS011;11478;51.094;7.030;2023-08-24T07:37:32;5.05;;;3.17;;
22622;SDS011;11478;51.094;7.030;2023-08-24T07:42:47;4.03;;;2.75;;
22622;SDS011;11478;51.094;7.030;2023-08-24T07:45:21;5.85;;;3.08;;
22622;SDS011;11478;51.094;7.030;2023-08-24T07:47:51;6.40;;;2.83;;
22622;SDS011;11478;51.094;7.030;2023-08-24T07:50:17;6.05;;;2.83;;
22622;SDS011;11478;51.094;7.030;2023-08-24T07:52:47;6.40;;;3.05;;
22622;SDS011;11478;51.094;7.030;2023-08-24T07:55:13;5.65;;;2.72;;
22622;SDS011;11478;51.094;7.030;2023-08-24T07:57:41;7.97;;;2.90;;
22622;SDS011;11478;51.094;7.030;2023-08-24T08:00:07;4.47;;;2.60;;
22622;SDS011;11478;51.094;7.030;2023-08-24T08:02:40;4.15;;;2.80;;
22622;SDS011;11478;51.094;7.030;2023-08-24T08:05:06;7.47;;;2.97;;
22622;SDS011;11478;51.094;7.030;2023-08-24T08:07:33;6.18;;;2.90;;
22622;SDS011;11478;51.094;7.030;2023-08-24T08:09:59;5.45;;;2.75;;
22622;SDS011;11478;51.094;7.030;2023-08-24T08:12:25;8.38;;;2.90;;
22622;SDS011;11478;51.094;7.030;2023-08-24T08:14:51;7.82;;;3.00;;
22622;SDS011;11478;51.094;7.030;2023-08-24T08:17:17;4.90;;;2.63;;
22622;SDS011;11478;51.094;7.030;2023-08-24T08:19:44;5.13;;;3.00;;
22622;SDS011;11478;51.094;7.030;2023-08-24T08:22:11;5.60;;;3.00;;
22622;SDS011;11478;51.094;7.030;2023-08-24T08:24:45;4.00;;;2.85;;
22622;SDS011;11478;51.094;7.030;2023-08-24T08:27:11;7.77;;;2.90;;
22622;SDS011;11478;51.094;7.030;2023-08-24T08:29:43;5.80;;;2.65;;
22622;SDS011;11478;51.094;7.030;2023-08-24T08:32:09;7.75;;;3.25;;
22622;SDS011;11478;51.094;7.030;2023-08-24T08:34:37;6.00;;;2.95;;
22622;SDS011;11478;51.094;7.030;2023-08-24T08:37:03;5.00;;;2.80;;
22622;SDS011;11478;51.094;7.030;2023-08-24T08:39:29;7.47;;;3.13;;
22622;SDS011;11478;51.094;7.030;2023-08-24T08:41:57;5.15;;;2.88;;
22622;SDS011;11478;51.094;7.030;2023-08-24T08:44:32;7.70;;;3.03;;
22622;SDS011;11478;51.094;7.030;2023-08-24T08:46:58;6.20;;;3.10;;
22622;SDS011;11478;51.094;7.030;2023-08-24T08:49:31;4.65;;;2.60;;
22622;SDS011;11478;51.094;7.030;2023-08-24T08:52:01;5.03;;;2.80;;
22622;SDS011;11478;51.094;7.030;2023-08-24T08:54:33;5.70;;;2.80;;
22622;SDS011;11478;51.094;7.030;2023-08-24T08:56:59;6.88;;;2.83;;
22622;SDS011;11478;51.094;7.030;2023-08-24T08:59:27;7.50;;;2.90;;
22622;SDS011;11478;51.094;7.030;2023-08-24T09:02:02;5.13;;;2.60;;
22622;SDS011;11478;51.094;7.030;2023-08-24T09:04:34;4.20;;;2.80;;
22622;SDS011;11478;51.094;7.030;2023-08-24T09:06:59;5.25;;;2.60;;
22622;SDS011;11478;51.094;7.030;2023-08-24T09:09:33;5.00;;;2.60;;
22622;SDS011;11478;51.094;7.030;2023-08-24T09:11:59;5.10;;;2.90;;
22622;SDS011;11478;51.094;7.030;2023-08-24T09:14:26;5.68;;;3.20;;
22622;SDS011;11478;51.094;7.030;2023-08-24T09:17:00;6.05;;;2.83;;
22622;SDS011;11478;51.094;7.030;2023-08-24T09:19:32;8.45;;;2.95;;
22622;SDS011;11478;51.094;7.030;2023-08-24T09:22:01;3.95;;;2.47;;
22622;SDS011;11478;51.094;7.030;2023-08-24T09:24:35;5.68;;;2.70;;
22622;SDS011;11478;51.094;7.030;2023-08-24T09:27:25;4.65;;;2.70;;
22622;SDS011;11478;51.094;7.030;2023-08-24T09:29:50;4.78;;;2.38;;
22622;SDS011;11478;51.094;7.030;2023-08-24T09:32:30;5.05;;;2.85;;
22622;SDS011;11478;51.094;7.030;2023-08-24T09:35:07;3.75;;;2.30;;
22622;SDS011;11478;51.094;7.030;2023-08-24T09:40:07;4.90;;;2.63;;
22622;SDS011;11478;51.094;7.030;2023-08-24T09:42:40;4.85;;;2.80;;
22622;SDS011;11478;51.094;7.030;2023-08-24T09:45:13;3.55;;;2.35;;
22622;SDS011;11478;51.094;7.030;2023-08-24T09:47:49;4.60;;;2.67;;
22622;SDS011;11478;51.094;7.030;2023-08-24T09:50:16;5.47;;;2.60;;
22622;SDS011;11478;51.094;7.030;2023-08-24T09:55:21;5.93;;;2.53;;
22622;SDS011;11478;51.094;7.030;2023-08-24T09:57:52;4.30;;;2.85;;
22622;SDS011;11478;51.094;7.030;2023-08-24T10:00:22;6.15;;;2.88;;
22622;SDS011;11478;51.094;7.030;2023-08-24T10:02:53;3.53;;;2.75;;
22622;SDS011;11478;51.094;7.030;2023-08-24T10:05:20;6.25;;;3.15;;
22622;SDS011;11478;51.094;7.030;2023-08-24T10:07:53;4.85;;;3.10;;
22622;SDS011;11478;51.094;7.030;2023-08-24T10:10:21;6.57;;;3.50;;
22622;SDS011;11478;51.094;7.030;2023-08-24T10:12:51;4.72;;;2.90;;
22622;SDS011;11478;51.094;7.030;2023-08-24T10:15:22;6.75;;;2.80;;
22622;SDS011;11478;51.094;7.030;2023-08-24T10:17:50;5.32;;;2.78;;
22622;SDS011;11478;51.094;7.030;2023-08-24T10:20:18;4.30;;;2.65;;
22622;SDS011;11478;51.094;7.030;2023-08-24T10:22:45;6.05;;;2.78;;
22622;SDS011;11478;51.094;7.030;2023-08-24T10:25:12;4.82;;;2.92;;
22622;SDS011;11478;51.094;7.030;2023-08-24T10:27:39;4.30;;;2.90;;
22622;SDS011;11478;51.094;7.030;2023-08-24T10:30:13;4.30;;;2.67;;
22622;SDS011;11478;51.094;7.030;2023-08-24T10:32:40;5.97;;;2.60;;
22622;SDS011;11478;51.094;7.030;2023-08-24T10:35:08;7.68;;;2.70;;
22622;SDS011;11478;51.094;7.030;2023-08-24T10:37:34;9.48;;;3.00;;
22622;SDS011;11478;51.094;7.030;2023-08-24T10:40:01;3.20;;;2.70;;
22622;SDS011;11478;51.094;7.030;2023-08-24T10:42:43;4.55;;;3.15;;
22622;SDS011;11478;51.094;7.030;2023-08-24T10:45:13;4.45;;;3.17;;
22622;SDS011;11478;51.094;7.030;2023-08-24T10:47:43;6.18;;;3.30;;
22622;SDS011;11478;51.094;7.030;2023-08-24T10:50:14;4.85;;;2.80;;
22622;SDS011;11478;51.094;7.030;2023-08-24T10:52:42;3.63;;;2.88;;
22622;SDS011;11478;51.094;7.030;2023-08-24T10:55:22;5.22;;;2.95;;
22622;SDS011;11478;51.094;7.030;2023-08-24T10:58:09;4.40;;;2.72;;
22622;SDS011;11478;51.094;7.030;2023-08-24T11:00:42;4.68;;;3.40;;
22622;SDS011;11478;51.094;7.030;2023-08-24T11:03:29;6.70;;;3.20;;
22622;SDS011;11478;51.094;7.030;2023-08-24T11:05:59;5.07;;;2.78;;
22622;SDS011;11478;51.094;7.030;2023-08-24T11:11:38;9.63;;;3.10;;
22622;SDS011;11478;51.094;7.030;2023-08-24T11:14:15;4.75;;;2.85;;
22622;SDS011;11478;51.094;7.030;2023-08-24T11:16:48;3.67;;;2.55;;
22622;SDS011;11478;51.094;7.030;2023-08-24T11:19:15;5.18;;;2.83;;
22622;SDS011;11478;51.094;7.030;2023-08-24T11:21:43;5.00;;;2.78;;
22622;SDS011;11478;51.094;7.030;2023-08-24T11:24:14;6.80;;;3.08;;
22622;SDS011;11478;51.094;7.030;2023-08-24T11:26:42;4.82;;;3.28;;
22622;SDS011;11478;51.094;7.030;2023-08-24T11:29:17;6.68;;;3.33;;
22622;SDS011;11478;51.094;7.030;2023-08-24T11:31:46;7.93;;;2.92;;
22622;SDS011;11478;51.094;7.030;2023-08-24T11:34:16;6.90;;;3.22;;
22622;SDS011;11478;51.094;7.030;2023-08-24T11:36:43;5.47;;;3.00;;
22622;SDS011;11478;51.094;7.030;2023-08-24T11:41:43;6.75;;;3.00;;
22622;SDS011;11478;51.094;7.030;2023-08-24T11:44:09;6.22;;;3.33;;
22622;SDS011;11478;51.094;7.030;2023-08-24T11:46:35;6.95;;;3.67;;
22622;SDS011;11478;51.094;7.030;2023-08-24T11:49:07;5.55;;;3.03;;
22622;SDS011;11478;51.094;7.030;2023-08-24T11:51:33;4.97;;;3.33;;
22622;SDS011;11478;51.094;7.030;2023-08-24T11:54:02;9.95;;;3.50;;
22622;SDS011;11478;51.094;7.030;2023-08-24T11:56:29;5.65;;;3.00;;
22622;SDS011;11478;51.094;7.030;2023-08-24T11:58:56;6.00;;;3.25;;
22622;SDS011;11478;51.094;7.030;2023-08-24T12:01:22;5.65;;;3.00;;
22622;SDS011;11478;51.094;7.030;2023-08-24T12:06:20;6.13;;;3.50;;
22622;SDS011;11478;51.094;7.030;2023-08-24T12:08:47;6.97;;;3.17;;
22622;SDS011;11478;51.094;7.030;2023-08-24T12:11:17;4.78;;;2.90;;
22622;SDS011;11478;51.094;7.030;2023-08-24T12:13:57;5.40;;;3.30;;
22622;SDS011;11478;51.094;7.030;2023-08-24T12:16:23;4.53;;;3.20;;
22622;SDS011;11478;51.094;7.030;2023-08-24T12:19:06;7.20;;;3.40;;
22622;SDS011;11478;51.094;7.030;2023-08-24T12:21:33;6.93;;;3.10;;
22622;SDS011;11478;51.094;7.030;2023-08-24T12:24:04;7.35;;;3.10;;
22622;SDS011;11478;51.094;7.030;2023-08-24T12:26:31;6.68;;;2.90;;
22622;SDS011;11478;51.094;7.030;2023-08-24T12:29:05;7.32;;;3.25;;
22622;SDS011;11478;51.094;7.030;2023-08-24T12:31:32;6.45;;;3.30;;
22622;SDS011;11478;51.094;7.030;2023-08-24T12:34:05;5.68;;;3.47;;
22622;SDS011;11478;51.094;7.030;2023-08-24T12:36:36;8.40;;;3.67;;
22622;SDS011;11478;51.094;7.030;2023-08-24T12:39:06;5.32;;;3.40;;
22622;SDS011;11478;51.094;7.030;2023-08-24T12:41:35;9.13;;;3.60;;
22622;SDS011;11478;51.094;7.030;2023-08-24T12:44:02;7.93;;;3.28;;
22622;SDS011;11478;51.094;7.030;2023-08-24T12:46:34;4.28;;;3.40;;
22622;SDS011;11478;51.094;7.030;2023-08-24T12:49:06;5.50;;;3.50;;
22622;SDS011;11478;51.094;7.030;2023-08-24T12:51:32;5.30;;;3.47;;
22622;SDS011;11478;51.094;7.030;2023-08-24T12:53:58;9.25;;;3.70;;
22622;SDS011;11478;51.094;7.030;2023-08-24T12:56:23;8.40;;;3.80;;
22622;SDS011;11478;51.094;7.030;2023-08-24T12:58:52;9.30;;;3.75;;
22622;SDS011;11478;51.094;7.030;2023-08-24T13:01:17;9.32;;;4.15;;
22622;SDS011;11478;51.094;7.030;2023-08-24T13:03:43;6.53;;;4.00;;
22622;SDS011;11478;51.094;7.030;2023-08-24T13:06:09;9.38;;;4.50;;
22622;SDS011;11478;51.094;7.030;2023-08-24T13:08:35;7.10;;;3.97;;
22622;SDS011;11478;51.094;7.030;2023-08-24T13:11:02;9.23;;;4.53;;
22622;SDS011;11478;51.094;7.030;2023-08-24T13:13:28;6.75;;;3.90;;
22622;SDS011;11478;51.094;7.030;2023-08-24T13:15:53;7.22;;;4.45;;
22622;SDS011;11478;51.094;7.030;2023-08-24T13:18:22;7.57;;;4.50;;
22622;SDS011;11478;51.094;7.030;2023-08-24T13:20:49;7.57;;;4.43;;
22622;SDS011;11478;51.094;7.030;2023-08-24T13:23:14;5.10;;;3.97;;
22622;SDS011;11478;51.094;7.030;2023-08-24T13:25:41;8.68;;;4.18;;
22622;SDS011;11478;51.094;7.030;2023-08-24T13:28:06;6.38;;;4.38;;
22622;SDS011;11478;51.094;7.030;2023-08-24T13:30:35;5.20;;;4.00;;
22622;SDS011;11478;51.094;7.030;2023-08-24T13:33:01;6.05;;;4.07;;
22622;SDS011;11478;51.094;7.030;2023-08-24T13:35:28;10.98;;;4.35;;
22622;SDS011;11478;51.094;7.030;2023-08-24T13:37:54;9.52;;;4.15;;
22622;SDS011;11478;51.094;7.030;2023-08-24T13:40:20;9.10;;;4.38;;
22622;SDS011;11478;51.094;7.030;2023-08-24T13:42:46;7.25;;;4.88;;
22622;SDS011;11478;51.094;7.030;2023-08-24T13:45:12;9.05;;;4.43;;
22622;SDS011;11478;51.094;7.030;2023-08-24T13:47:37;6.78;;;4.68;;
22622;SDS011;11478;51.094;7.030;2023-08-24T13:50:05;11.70;;;9.55;;
22622;SDS011;11478;51.094;7.030;2023-08-24T13:52:31;9.95;;;7.10;;
22622;SDS011;11478;51.094;7.030;2023-08-24T13:54:58;7.90;;;5.72;;
22622;SDS011;11478;51.094;7.030;2023-08-24T13:57:24;10.75;;;4.82;;
22622;SDS011;11478;51.094;7.030;2023-08-24T13:59:50;7.43;;;4.63;;
22622;SDS011;11478;51.094;7.030;2023-08-24T14:02:16;11.85;;;4.97;;
22622;SDS011;11478;51.094;7.030;2023-08-24T14:04:41;9.73;;;4.45;;
22622;SDS011;11478;51.094;7.030;2023-08-24T14:07:07;7.47;;;4.80;;
22622;SDS011;11478;51.094;7.030;2023-08-24T14:09:36;9.63;;;4.60;;
22622;SDS011;11478;51.094;7.030;2023-08-24T14:12:02;7.90;;;4.53;;
22622;SDS011;11478;51.094;7.030;2023-08-24T14:14:28;8.57;;;4.28;;
22622;SDS011;11478;51.094;7.030;2023-08-24T14:16:54;7.60;;;4.75;;
22622;SDS011;11478;51.094;7.030;2023-08-24T14:19:23;6.72;;;4.25;;
22622;SDS011;11478;51.094;7.030;2023-08-24T14:21:50;8.02;;;4.18;;
22622;SDS011;11478;51.094;7.030;2023-08-24T14:24:16;7.40;;;4.35;;
22622;SDS011;11478;51.094;7.030;2023-08-24T14:26:43;8.00;;;4.55;;
22622;SDS011;11478;51.094;7.030;2023-08-24T14:29:17;9.18;;;4.30;;
22622;SDS011;11478;51.094;7.030;2023-08-24T14:31:43;8.32;;;4.63;;
22622;SDS011;11478;51.094;7.030;2023-08-24T14:34:09;7.05;;;4.47;;
22622;SDS011;11478;51.094;7.030;2023-08-24T14:36:35;9.60;;;4.65;;
22622;SDS011;11478;51.094;7.030;2023-08-24T14:39:01;12.00;;;4.70;;
22622;SDS011;11478;51.094;7.030;2023-08-24T14:41:27;9.23;;;4.53;;
22622;SDS011;11478;51.094;7.030;2023-08-24T14:43:54;8.30;;;4.30;;
22622;SDS011;11478;51.094;7.030;2023-08-24T14:46:20;10.45;;;5.18;;
22622;SDS011;11478;51.094;7.030;2023-08-24T14:48:46;9.45;;;4.80;;
22622;SDS011;11478;51.094;7.030;2023-08-24T14:51:12;9.02;;;5.00;;
22622;SDS011;11478;51.094;7.030;2023-08-24T14:53:40;12.80;;;5.70;;
22622;SDS011;11478;51.094;7.030;2023-08-24T14:56:06;11.20;;;4.80;;
22622;SDS011;11478;51.094;7.030;2023-08-24T14:58:33;9.85;;;5.07;;
22622;SDS011;11478;51.094;7.030;2023-08-24T15:00:59;8.88;;;4.72;;
22622;SDS011;11478;51.094;7.030;2023-08-24T15:03:25;10.38;;;4.68;;
22622;SDS011;11478;51.094;7.030;2023-08-24T15:08:24;8.98;;;4.00;;
22622;SDS011;11478;51.094;7.030;2023-08-24T15:10:50;13.38;;;4.15;;
22622;SDS011;11478;51.094;7.030;2023-08-24T15:13:16;9.75;;;4.50;;
22622;SDS011;11478;51.094;7.030;2023-08-24T15:15:42;8.63;;;4.30;;
22622;SDS011;11478;51.094;7.030;2023-08-24T15:18:09;12.20;;;4.50;;
22622;SDS011;11478;51.094;7.030;2023-08-24T15:20:36;14.65;;;4.70;;
22622;SDS011;11478;51.094;7.030;2023-08-24T15:23:02;12.35;;;4.55;;
22622;SDS011;11478;51.094;7.030;2023-08-24T15:25:33;13.95;;;4.50;;